sensor_id;sensor_type;location;lat;lon;timestamp;P1;durP1;ratioP1;P2;durP2;ratioP2
45909;SDS011;31622;55.416;37.840;2023-05-16T00:00:06;8.13;;;3.58;;
45909;SDS011;31622;55.416;37.840;2023-05-16T00:02:34;11.88;;;3.92;;
45909;SDS011;31622;55.416;37.840;2023-05-16T00:05:01;10.23;;;3.63;;
45909;SDS011;31622;55.416;37.840;2023-05-16T00:07:29;11.35;;;4.13;;
45909;SDS011;31622;55.416;37.840;2023-05-16T00:09:55;9.75;;;3.95;;
45909;SDS011;31622;55.416;37.840;2023-05-16T00:12:21;7.10;;;3.22;;
45909;SDS011;31622;55.416;37.840;2023-05-16T00:14:47;9.85;;;3.85;;
45909;SDS011;31622;55.416;37.840;2023-05-16T00:17:14;10.00;;;3.80;;
45909;SDS011;31622;55.416;37.840;2023-05-16T00:19:43;13.32;;;4.25;;
45909;SDS011;31622;55.416;37.840;2023-05-16T00:22:11;10.82;;;3.80;;
45909;SDS011;31622;55.416;37.840;2023-05-16T00:24:37;10.68;;;3.65;;
45909;SDS011;31622;55.416;37.840;2023-05-16T00:27:03;11.80;;;3.72;;
45909;SDS011;31622;55.416;37.840;2023-05-16T00:29:30;10.23;;;3.50;;
45909;SDS011;31622;55.416;37.840;2023-05-16T00:31:57;10.43;;;3.67;;
45909;SDS011;31622;55.416;37.840;2023-05-16T00:34:22;9.02;;;3.70;;
45909;SDS011;31622;55.416;37.840;2023-05-16T00:36:51;10.10;;;3.50;;
45909;SDS011;31622;55.416;37.840;2023-05-16T00:39:17;7.40;;;3.78;;
45909;SDS011;31622;55.416;37.840;2023-05-16T00:41:43;12.02;;;3.67;;
45909;SDS011;31622;55.416;37.840;2023-05-16T00:44:09;10.15;;;3.50;;
45909;SDS011;31622;55.416;37.840;2023-05-16T00:46:35;9.35;;;4.03;;
45909;SDS011;31622;55.416;37.840;2023-05-16T00:49:00;10.63;;;3.50;;
45909;SDS011;31622;55.416;37.840;2023-05-16T00:51:27;12.00;;;3.75;;
45909;SDS011;31622;55.416;37.840;2023-05-16T00:53:53;8.63;;;3.53;;
45909;SDS011;31622;55.416;37.840;2023-05-16T00:56:19;7.53;;;3.80;;
45909;SDS011;31622;55.416;37.840;2023-05-16T00:58:46;10.00;;;3.60;;
45909;SDS011;31622;55.416;37.840;2023-05-16T01:01:11;9.50;;;3.50;;
45909;SDS011;31622;55.416;37.840;2023-05-16T01:03:38;8.50;;;3.75;;
45909;SDS011;31622;55.416;37.840;2023-05-16T01:06:04;11.82;;;3.67;;
45909;SDS011;31622;55.416;37.840;2023-05-16T01:08:32;10.02;;;3.55;;
45909;SDS011;31622;55.416;37.840;2023-05-16T01:11:05;7.03;;;3.63;;
45909;SDS011;31622;55.416;37.840;2023-05-16T01:13:47;9.38;;;3.80;;
45909;SDS011;31622;55.416;37.840;2023-05-16T01:16:53;14.55;;;3.70;;
45909;SDS011;31622;55.416;37.840;2023-05-16T01:22:05;13.50;;;3.55;;
45909;SDS011;31622;55.416;37.840;2023-05-16T01:27:41;8.88;;;3.75;;
45909;SDS011;31622;55.416;37.840;2023-05-16T01:30:15;10.02;;;3.42;;
45909;SDS011;31622;55.416;37.840;2023-05-16T01:32:42;8.85;;;3.75;;
45909;SDS011;31622;55.416;37.840;2023-05-16T01:35:08;6.50;;;3.85;;
45909;SDS011;31622;55.416;37.840;2023-05-16T01:37:37;7.18;;;3.40;;
45909;SDS011;31622;55.416;37.840;2023-05-16T01:40:15;8.10;;;3.20;;
45909;SDS011;31622;55.416;37.840;2023-05-16T01:42:46;7.65;;;3.60;;
45909;SDS011;31622;55.416;37.840;2023-05-16T01:45:17;6.68;;;3.63;;
45909;SDS011;31622;55.416;37.840;2023-05-16T01:47:49;7.03;;;3.50;;
45909;SDS011;31622;55.416;37.840;2023-05-16T01:52:58;11.38;;;3.20;;
45909;SDS011;31622;55.416;37.840;2023-05-16T01:58:11;7.38;;;3.63;;
45909;SDS011;31622;55.416;37.840;2023-05-16T02:00:40;7.20;;;3.80;;
45909;SDS011;31622;55.416;37.840;2023-05-16T02:03:07;6.18;;;3.20;;
45909;SDS011;31622;55.416;37.840;2023-05-16T02:05:33;7.28;;;3.22;;
45909;SDS011;31622;55.416;37.840;2023-05-16T02:07:59;5.60;;;3.17;;
45909;SDS011;31622;55.416;37.840;2023-05-16T02:10:25;7.40;;;3.13;;
45909;SDS011;31622;55.416;37.840;2023-05-16T02:12:51;5.45;;;3.45;;
45909;SDS011;31622;55.416;37.840;2023-05-16T02:15:17;7.30;;;3.28;;
45909;SDS011;31622;55.416;37.840;2023-05-16T02:17:43;7.10;;;3.55;;
45909;SDS011;31622;55.416;37.840;2023-05-16T02:20:09;8.68;;;2.90;;
45909;SDS011;31622;55.416;37.840;2023-05-16T02:22:36;7.90;;;3.00;;
45909;SDS011;31622;55.416;37.840;2023-05-16T02:25:03;6.38;;;2.97;;
45909;SDS011;31622;55.416;37.840;2023-05-16T02:27:29;5.05;;;3.05;;
45909;SDS011;31622;55.416;37.840;2023-05-16T02:29:55;7.60;;;3.65;;
45909;SDS011;31622;55.416;37.840;2023-05-16T02:32:21;5.70;;;2.97;;
45909;SDS011;31622;55.416;37.840;2023-05-16T02:34:47;8.60;;;2.50;;
45909;SDS011;31622;55.416;37.840;2023-05-16T02:37:13;5.45;;;2.83;;
45909;SDS011;31622;55.416;37.840;2023-05-16T02:39:38;7.35;;;3.10;;
45909;SDS011;31622;55.416;37.840;2023-05-16T02:42:05;6.43;;;2.95;;
45909;SDS011;31622;55.416;37.840;2023-05-16T02:44:31;6.32;;;2.95;;
45909;SDS011;31622;55.416;37.840;2023-05-16T02:46:57;4.80;;;3.22;;
45909;SDS011;31622;55.416;37.840;2023-05-16T02:49:23;5.60;;;2.95;;
45909;SDS011;31622;55.416;37.840;2023-05-16T02:51:48;6.00;;;3.00;;
45909;SDS011;31622;55.416;37.840;2023-05-16T02:54:14;5.57;;;2.80;;
45909;SDS011;31622;55.416;37.840;2023-05-16T02:56:40;6.88;;;3.10;;
45909;SDS011;31622;55.416;37.840;2023-05-16T02:59:06;4.47;;;2.75;;
45909;SDS011;31622;55.416;37.840;2023-05-16T03:01:32;6.70;;;3.00;;
45909;SDS011;31622;55.416;37.840;2023-05-16T03:03:58;4.75;;;2.65;;
45909;SDS011;31622;55.416;37.840;2023-05-16T03:06:24;5.72;;;3.05;;
45909;SDS011;31622;55.416;37.840;2023-05-16T03:08:50;3.53;;;2.35;;
45909;SDS011;31622;55.416;37.840;2023-05-16T03:11:16;5.03;;;2.78;;
45909;SDS011;31622;55.416;37.840;2023-05-16T03:13:45;5.05;;;2.80;;
45909;SDS011;31622;55.416;37.840;2023-05-16T03:16:11;7.25;;;3.70;;
45909;SDS011;31622;55.416;37.840;2023-05-16T03:18:37;13.98;;;8.43;;
45909;SDS011;31622;55.416;37.840;2023-05-16T03:21:03;8.63;;;4.10;;
45909;SDS011;31622;55.416;37.840;2023-05-16T03:23:29;7.97;;;2.80;;
45909;SDS011;31622;55.416;37.840;2023-05-16T03:25:55;7.38;;;3.15;;
45909;SDS011;31622;55.416;37.840;2023-05-16T03:28:21;7.93;;;3.13;;
45909;SDS011;31622;55.416;37.840;2023-05-16T03:30:46;6.32;;;3.35;;
45909;SDS011;31622;55.416;37.840;2023-05-16T03:33:12;6.85;;;3.35;;
45909;SDS011;31622;55.416;37.840;2023-05-16T03:35:38;6.18;;;3.95;;
45909;SDS011;31622;55.416;37.840;2023-05-16T03:38:04;7.07;;;3.13;;
45909;SDS011;31622;55.416;37.840;2023-05-16T03:40:30;5.10;;;3.00;;
45909;SDS011;31622;55.416;37.840;2023-05-16T03:42:56;13.73;;;6.10;;
45909;SDS011;31622;55.416;37.840;2023-05-16T03:45:22;6.95;;;3.15;;
45909;SDS011;31622;55.416;37.840;2023-05-16T03:47:48;7.47;;;2.92;;
45909;SDS011;31622;55.416;37.840;2023-05-16T03:50:13;6.10;;;3.10;;
45909;SDS011;31622;55.416;37.840;2023-05-16T03:52:39;8.20;;;4.25;;
45909;SDS011;31622;55.416;37.840;2023-05-16T03:55:05;8.13;;;3.03;;
45909;SDS011;31622;55.416;37.840;2023-05-16T03:57:32;8.57;;;2.50;;
45909;SDS011;31622;55.416;37.840;2023-05-16T03:59:58;4.93;;;2.70;;
45909;SDS011;31622;55.416;37.840;2023-05-16T04:02:24;5.18;;;2.45;;
45909;SDS011;31622;55.416;37.840;2023-05-16T04:04:50;9.52;;;3.22;;
45909;SDS011;31622;55.416;37.840;2023-05-16T04:07:16;7.57;;;2.25;;
45909;SDS011;31622;55.416;37.840;2023-05-16T04:09:41;6.47;;;3.10;;
45909;SDS011;31622;55.416;37.840;2023-05-16T04:12:07;6.07;;;3.00;;
45909;SDS011;31622;55.416;37.840;2023-05-16T04:14:33;4.53;;;2.13;;
45909;SDS011;31622;55.416;37.840;2023-05-16T04:16:59;3.63;;;2.42;;
45909;SDS011;31622;55.416;37.840;2023-05-16T04:19:25;5.78;;;2.40;;
45909;SDS011;31622;55.416;37.840;2023-05-16T04:21:51;5.35;;;3.28;;
45909;SDS011;31622;55.416;37.840;2023-05-16T04:24:17;13.13;;;6.00;;
45909;SDS011;31622;55.416;37.840;2023-05-16T04:26:43;9.18;;;4.00;;
45909;SDS011;31622;55.416;37.840;2023-05-16T04:29:09;8.10;;;4.15;;
45909;SDS011;31622;55.416;37.840;2023-05-16T04:31:35;8.48;;;3.97;;
45909;SDS011;31622;55.416;37.840;2023-05-16T04:34:01;6.45;;;3.28;;
45909;SDS011;31622;55.416;37.840;2023-05-16T04:36:27;8.23;;;3.20;;
45909;SDS011;31622;55.416;37.840;2023-05-16T04:38:56;4.80;;;2.72;;
45909;SDS011;31622;55.416;37.840;2023-05-16T04:41:22;5.68;;;2.33;;
45909;SDS011;31622;55.416;37.840;2023-05-16T04:43:48;6.22;;;2.38;;
45909;SDS011;31622;55.416;37.840;2023-05-16T04:46:13;4.53;;;1.95;;
45909;SDS011;31622;55.416;37.840;2023-05-16T04:48:42;4.35;;;2.38;;
45909;SDS011;31622;55.416;37.840;2023-05-16T04:51:08;5.25;;;1.85;;
45909;SDS011;31622;55.416;37.840;2023-05-16T04:53:34;6.72;;;1.95;;
45909;SDS011;31622;55.416;37.840;2023-05-16T04:55:59;6.78;;;2.08;;
45909;SDS011;31622;55.416;37.840;2023-05-16T04:58:25;7.38;;;1.88;;
45909;SDS011;31622;55.416;37.840;2023-05-16T05:00:51;6.65;;;1.80;;
45909;SDS011;31622;55.416;37.840;2023-05-16T05:03:17;5.75;;;1.70;;
45909;SDS011;31622;55.416;37.840;2023-05-16T05:05:43;5.80;;;1.90;;
45909;SDS011;31622;55.416;37.840;2023-05-16T05:08:10;5.10;;;1.35;;
45909;SDS011;31622;55.416;37.840;2023-05-16T05:10:36;2.58;;;1.65;;
45909;SDS011;31622;55.416;37.840;2023-05-16T05:13:01;6.03;;;2.00;;
45909;SDS011;31622;55.416;37.840;2023-05-16T05:15:27;5.35;;;1.77;;
45909;SDS011;31622;55.416;37.840;2023-05-16T05:17:53;5.47;;;3.28;;
45909;SDS011;31622;55.416;37.840;2023-05-16T05:20:18;2.75;;;1.70;;
45909;SDS011;31622;55.416;37.840;2023-05-16T05:22:44;3.42;;;1.42;;
45909;SDS011;31622;55.416;37.840;2023-05-16T05:25:11;3.20;;;1.52;;
45909;SDS011;31622;55.416;37.840;2023-05-16T05:27:36;3.58;;;1.40;;
45909;SDS011;31622;55.416;37.840;2023-05-16T05:30:02;4.78;;;1.40;;
45909;SDS011;31622;55.416;37.840;2023-05-16T05:32:28;3.83;;;1.50;;
45909;SDS011;31622;55.416;37.840;2023-05-16T05:34:54;2.78;;;1.27;;
45909;SDS011;31622;55.416;37.840;2023-05-16T05:37:20;8.05;;;1.83;;
45909;SDS011;31622;55.416;37.840;2023-05-16T05:39:45;10.32;;;1.88;;
45909;SDS011;31622;55.416;37.840;2023-05-16T05:42:11;8.40;;;3.50;;
45909;SDS011;31622;55.416;37.840;2023-05-16T05:44:37;2.58;;;1.48;;
45909;SDS011;31622;55.416;37.840;2023-05-16T05:47:03;3.75;;;1.08;;
45909;SDS011;31622;55.416;37.840;2023-05-16T05:49:30;7.60;;;1.65;;
45909;SDS011;31622;55.416;37.840;2023-05-16T05:51:56;7.85;;;1.83;;
45909;SDS011;31622;55.416;37.840;2023-05-16T05:54:22;23.17;;;2.78;;
45909;SDS011;31622;55.416;37.840;2023-05-16T05:56:48;19.35;;;2.53;;
45909;SDS011;31622;55.416;37.840;2023-05-16T05:59:14;6.15;;;1.88;;
45909;SDS011;31622;55.416;37.840;2023-05-16T06:01:40;10.40;;;3.67;;
45909;SDS011;31622;55.416;37.840;2023-05-16T06:04:06;6.22;;;1.50;;
45909;SDS011;31622;55.416;37.840;2023-05-16T06:06:32;5.95;;;1.23;;
45909;SDS011;31622;55.416;37.840;2023-05-16T06:08:58;17.17;;;9.63;;
45909;SDS011;31622;55.416;37.840;2023-05-16T06:11:23;25.42;;;8.68;;
45909;SDS011;31622;55.416;37.840;2023-05-16T06:13:50;20.60;;;6.88;;
45909;SDS011;31622;55.416;37.840;2023-05-16T06:16:16;16.67;;;6.40;;
45909;SDS011;31622;55.416;37.840;2023-05-16T06:18:42;10.82;;;3.83;;
45909;SDS011;31622;55.416;37.840;2023-05-16T06:21:08;7.03;;;2.15;;
45909;SDS011;31622;55.416;37.840;2023-05-16T06:23:34;7.68;;;2.45;;
45909;SDS011;31622;55.416;37.840;2023-05-16T06:26:00;8.32;;;3.05;;
45909;SDS011;31622;55.416;37.840;2023-05-16T06:28:27;9.18;;;2.78;;
45909;SDS011;31622;55.416;37.840;2023-05-16T06:30:53;13.10;;;3.58;;
45909;SDS011;31622;55.416;37.840;2023-05-16T06:33:19;8.00;;;3.03;;
45909;SDS011;31622;55.416;37.840;2023-05-16T06:35:45;6.10;;;1.83;;
45909;SDS011;31622;55.416;37.840;2023-05-16T06:38:13;4.15;;;1.95;;
45909;SDS011;31622;55.416;37.840;2023-05-16T06:40:39;7.68;;;2.10;;
45909;SDS011;31622;55.416;37.840;2023-05-16T06:43:05;8.95;;;1.83;;
45909;SDS011;31622;55.416;37.840;2023-05-16T06:45:31;4.55;;;2.08;;
45909;SDS011;31622;55.416;37.840;2023-05-16T06:47:56;6.00;;;2.28;;
45909;SDS011;31622;55.416;37.840;2023-05-16T06:50:22;7.57;;;1.63;;
45909;SDS011;31622;55.416;37.840;2023-05-16T06:52:48;5.75;;;1.55;;
45909;SDS011;31622;55.416;37.840;2023-05-16T06:55:14;7.38;;;1.35;;
45909;SDS011;31622;55.416;37.840;2023-05-16T06:57:40;4.30;;;1.67;;
45909;SDS011;31622;55.416;37.840;2023-05-16T07:00:06;5.80;;;1.58;;
45909;SDS011;31622;55.416;37.840;2023-05-16T07:02:32;5.88;;;1.23;;
45909;SDS011;31622;55.416;37.840;2023-05-16T07:04:58;6.90;;;1.70;;
45909;SDS011;31622;55.416;37.840;2023-05-16T07:07:24;3.92;;;1.38;;
45909;SDS011;31622;55.416;37.840;2023-05-16T07:09:50;4.70;;;1.73;;
45909;SDS011;31622;55.416;37.840;2023-05-16T07:12:15;3.22;;;1.95;;
45909;SDS011;31622;55.416;37.840;2023-05-16T07:14:41;8.15;;;1.60;;
45909;SDS011;31622;55.416;37.840;2023-05-16T07:17:08;4.88;;;1.83;;
45909;SDS011;31622;55.416;37.840;2023-05-16T07:19:34;2.63;;;1.23;;
45909;SDS011;31622;55.416;37.840;2023-05-16T07:22:00;5.85;;;1.08;;
45909;SDS011;31622;55.416;37.840;2023-05-16T07:24:25;7.30;;;1.35;;
45909;SDS011;31622;55.416;37.840;2023-05-16T07:26:51;8.45;;;1.40;;
45909;SDS011;31622;55.416;37.840;2023-05-16T07:29:17;18.55;;;2.45;;
45909;SDS011;31622;55.416;37.840;2023-05-16T07:31:43;11.40;;;1.20;;
45909;SDS011;31622;55.416;37.840;2023-05-16T07:34:09;9.57;;;1.40;;
45909;SDS011;31622;55.416;37.840;2023-05-16T07:36:35;8.27;;;1.25;;
45909;SDS011;31622;55.416;37.840;2023-05-16T07:39:01;5.80;;;0.93;;
45909;SDS011;31622;55.416;37.840;2023-05-16T07:41:28;7.80;;;1.23;;
45909;SDS011;31622;55.416;37.840;2023-05-16T07:43:54;8.20;;;1.48;;
45909;SDS011;31622;55.416;37.840;2023-05-16T07:46:19;9.57;;;1.40;;
45909;SDS011;31622;55.416;37.840;2023-05-16T07:48:45;3.13;;;1.00;;
45909;SDS011;31622;55.416;37.840;2023-05-16T07:51:11;4.50;;;1.10;;
45909;SDS011;31622;55.416;37.840;2023-05-16T07:53:36;5.30;;;1.00;;
45909;SDS011;31622;55.416;37.840;2023-05-16T07:56:02;5.38;;;1.00;;
45909;SDS011;31622;55.416;37.840;2023-05-16T07:58:28;4.95;;;0.90;;
45909;SDS011;31622;55.416;37.840;2023-05-16T08:00:54;4.55;;;1.02;;
45909;SDS011;31622;55.416;37.840;2023-05-16T08:03:20;4.28;;;1.38;;
45909;SDS011;31622;55.416;37.840;2023-05-16T08:05:46;5.65;;;1.60;;
45909;SDS011;31622;55.416;37.840;2023-05-16T08:08:13;5.25;;;1.38;;
45909;SDS011;31622;55.416;37.840;2023-05-16T08:10:39;3.33;;;1.17;;
45909;SDS011;31622;55.416;37.840;2023-05-16T08:13:05;4.18;;;1.17;;
45909;SDS011;31622;55.416;37.840;2023-05-16T08:15:30;3.17;;;1.17;;
45909;SDS011;31622;55.416;37.840;2023-05-16T08:17:56;2.88;;;0.80;;
45909;SDS011;31622;55.416;37.840;2023-05-16T08:20:23;2.97;;;1.00;;
45909;SDS011;31622;55.416;37.840;2023-05-16T08:22:49;2.33;;;0.73;;
45909;SDS011;31622;55.416;37.840;2023-05-16T08:25:16;3.67;;;0.70;;
45909;SDS011;31622;55.416;37.840;2023-05-16T08:27:41;1.95;;;0.68;;
45909;SDS011;31622;55.416;37.840;2023-05-16T08:30:09;4.20;;;1.10;;
45909;SDS011;31622;55.416;37.840;2023-05-16T08:32:36;2.35;;;0.70;;
45909;SDS011;31622;55.416;37.840;2023-05-16T08:35:02;6.38;;;0.98;;
45909;SDS011;31622;55.416;37.840;2023-05-16T08:37:28;1.52;;;0.60;;
45909;SDS011;31622;55.416;37.840;2023-05-16T08:39:53;3.17;;;0.73;;
45909;SDS011;31622;55.416;37.840;2023-05-16T08:42:19;4.35;;;1.27;;
45909;SDS011;31622;55.416;37.840;2023-05-16T08:44:45;6.05;;;1.00;;
45909;SDS011;31622;55.416;37.840;2023-05-16T08:47:12;2.42;;;0.70;;
45909;SDS011;31622;55.416;37.840;2023-05-16T08:49:43;2.90;;;0.60;;
45909;SDS011;31622;55.416;37.840;2023-05-16T08:52:09;4.43;;;0.80;;
45909;SDS011;31622;55.416;37.840;2023-05-16T08:54:36;2.95;;;0.60;;
45909;SDS011;31622;55.416;37.840;2023-05-16T08:57:02;5.20;;;1.00;;
45909;SDS011;31622;55.416;37.840;2023-05-16T08:59:28;9.68;;;1.00;;
45909;SDS011;31622;55.416;37.840;2023-05-16T09:01:54;7.72;;;0.75;;
45909;SDS011;31622;55.416;37.840;2023-05-16T09:04:20;3.03;;;0.60;;
45909;SDS011;31622;55.416;37.840;2023-05-16T09:06:46;2.17;;;0.55;;
45909;SDS011;31622;55.416;37.840;2023-05-16T09:09:12;2.95;;;0.80;;
45909;SDS011;31622;55.416;37.840;2023-05-16T09:11:38;2.13;;;1.00;;
45909;SDS011;31622;55.416;37.840;2023-05-16T09:14:04;2.05;;;0.85;;
45909;SDS011;31622;55.416;37.840;2023-05-16T09:16:30;4.13;;;0.60;;
45909;SDS011;31622;55.416;37.840;2023-05-16T09:18:57;3.85;;;0.90;;
45909;SDS011;31622;55.416;37.840;2023-05-16T09:21:31;1.17;;;0.60;;
45909;SDS011;31622;55.416;37.840;2023-05-16T09:24:05;4.85;;;0.90;;
45909;SDS011;31622;55.416;37.840;2023-05-16T09:26:32;2.42;;;0.60;;
45909;SDS011;31622;55.416;37.840;2023-05-16T09:28:58;4.18;;;0.63;;
45909;SDS011;31622;55.416;37.840;2023-05-16T09:31:25;2.15;;;0.68;;
45909;SDS011;31622;55.416;37.840;2023-05-16T09:33:52;2.42;;;0.70;;
45909;SDS011;31622;55.416;37.840;2023-05-16T09:36:20;3.58;;;1.00;;
45909;SDS011;31622;55.416;37.840;2023-05-16T09:38:46;2.25;;;0.75;;
45909;SDS011;31622;55.416;37.840;2023-05-16T09:41:12;1.90;;;0.75;;
45909;SDS011;31622;55.416;37.840;2023-05-16T09:43:38;2.17;;;0.60;;
45909;SDS011;31622;55.416;37.840;2023-05-16T09:46:05;3.45;;;0.90;;
45909;SDS011;31622;55.416;37.840;2023-05-16T09:48:31;1.50;;;0.80;;
45909;SDS011;31622;55.416;37.840;2023-05-16T09:50:57;4.28;;;0.80;;
45909;SDS011;31622;55.416;37.840;2023-05-16T09:53:29;6.40;;;1.00;;
45909;SDS011;31622;55.416;37.840;2023-05-16T09:58:29;8.50;;;1.00;;
45909;SDS011;31622;55.416;37.840;2023-05-16T10:00:56;2.10;;;0.90;;
45909;SDS011;31622;55.416;37.840;2023-05-16T10:03:22;5.38;;;0.60;;
45909;SDS011;31622;55.416;37.840;2023-05-16T10:05:49;2.47;;;0.80;;
45909;SDS011;31622;55.416;37.840;2023-05-16T10:08:18;3.13;;;0.75;;
45909;SDS011;31622;55.416;37.840;2023-05-16T10:10:45;3.08;;;0.95;;
45909;SDS011;31622;55.416;37.840;2023-05-16T10:13:15;2.80;;;0.70;;
45909;SDS011;31622;55.416;37.840;2023-05-16T10:15:43;1.52;;;0.77;;
45909;SDS011;31622;55.416;37.840;2023-05-16T10:18:09;3.35;;;0.80;;
45909;SDS011;31622;55.416;37.840;2023-05-16T10:20:38;2.38;;;0.60;;
45909;SDS011;31622;55.416;37.840;2023-05-16T10:23:09;3.13;;;0.60;;
45909;SDS011;31622;55.416;37.840;2023-05-16T10:25:40;2.42;;;0.75;;
45909;SDS011;31622;55.416;37.840;2023-05-16T10:28:09;3.08;;;0.70;;
45909;SDS011;31622;55.416;37.840;2023-05-16T10:30:36;3.65;;;0.63;;
45909;SDS011;31622;55.416;37.840;2023-05-16T10:33:05;2.90;;;0.77;;
45909;SDS011;31622;55.416;37.840;2023-05-16T10:35:31;0.98;;;0.47;;
45909;SDS011;31622;55.416;37.840;2023-05-16T10:37:58;1.13;;;0.70;;
45909;SDS011;31622;55.416;37.840;2023-05-16T10:40:25;3.17;;;0.70;;
45909;SDS011;31622;55.416;37.840;2023-05-16T10:43:01;2.28;;;0.60;;
45909;SDS011;31622;55.416;37.840;2023-05-16T10:45:28;2.13;;;0.50;;
45909;SDS011;31622;55.416;37.840;2023-05-16T10:47:54;1.58;;;0.63;;
45909;SDS011;31622;55.416;37.840;2023-05-16T10:50:40;2.70;;;0.57;;
45909;SDS011;31622;55.416;37.840;2023-05-16T11:01:16;2.38;;;0.50;;
45909;SDS011;31622;55.416;37.840;2023-05-16T11:06:26;1.25;;;0.50;;
45909;SDS011;31622;55.416;37.840;2023-05-16T11:11:37;1.52;;;0.50;;
45909;SDS011;31622;55.416;37.840;2023-05-16T11:14:03;1.00;;;0.50;;
45909;SDS011;31622;55.416;37.840;2023-05-16T11:16:29;1.55;;;0.60;;
45909;SDS011;31622;55.416;37.840;2023-05-16T11:19:03;1.02;;;0.50;;
45909;SDS011;31622;55.416;37.840;2023-05-16T11:24:35;2.00;;;0.52;;
45909;SDS011;31622;55.416;37.840;2023-05-16T11:27:02;4.32;;;0.55;;
45909;SDS011;31622;55.416;37.840;2023-05-16T11:29:34;1.00;;;0.52;;
45909;SDS011;31622;55.416;37.840;2023-05-16T11:32:02;4.40;;;0.70;;
45909;SDS011;31622;55.416;37.840;2023-05-16T11:34:30;1.48;;;0.60;;
45909;SDS011;31622;55.416;37.840;2023-05-16T11:36:57;2.50;;;0.40;;
45909;SDS011;31622;55.416;37.840;2023-05-16T11:39:24;1.92;;;0.50;;
45909;SDS011;31622;55.416;37.840;2023-05-16T11:41:50;2.20;;;0.50;;
45909;SDS011;31622;55.416;37.840;2023-05-16T11:44:17;2.25;;;0.50;;
45909;SDS011;31622;55.416;37.840;2023-05-16T11:46:43;3.95;;;0.68;;
45909;SDS011;31622;55.416;37.840;2023-05-16T11:49:08;3.08;;;0.80;;
45909;SDS011;31622;55.416;37.840;2023-05-16T11:51:38;1.92;;;0.50;;
45909;SDS011;31622;55.416;37.840;2023-05-16T11:54:05;2.58;;;0.60;;
45909;SDS011;31622;55.416;37.840;2023-05-16T11:56:32;2.35;;;0.47;;
45909;SDS011;31622;55.416;37.840;2023-05-16T11:59:00;2.60;;;0.65;;
45909;SDS011;31622;55.416;37.840;2023-05-16T12:01:43;1.88;;;0.73;;
45909;SDS011;31622;55.416;37.840;2023-05-16T12:04:12;1.27;;;0.63;;
45909;SDS011;31622;55.416;37.840;2023-05-16T12:06:39;4.00;;;0.65;;
45909;SDS011;31622;55.416;37.840;2023-05-16T12:09:10;1.98;;;0.70;;
45909;SDS011;31622;55.416;37.840;2023-05-16T12:11:36;1.15;;;0.60;;
45909;SDS011;31622;55.416;37.840;2023-05-16T12:14:03;1.70;;;0.70;;
45909;SDS011;31622;55.416;37.840;2023-05-16T12:16:30;3.45;;;0.52;;
45909;SDS011;31622;55.416;37.840;2023-05-16T12:18:57;1.52;;;0.50;;
45909;SDS011;31622;55.416;37.840;2023-05-16T12:21:23;2.42;;;0.60;;
45909;SDS011;31622;55.416;37.840;2023-05-16T12:23:48;2.50;;;0.50;;
45909;SDS011;31622;55.416;37.840;2023-05-16T12:26:14;2.72;;;0.63;;
45909;SDS011;31622;55.416;37.840;2023-05-16T12:28:40;1.00;;;0.60;;
45909;SDS011;31622;55.416;37.840;2023-05-16T12:31:17;2.70;;;0.50;;
45909;SDS011;31622;55.416;37.840;2023-05-16T12:33:44;3.75;;;0.75;;
45909;SDS011;31622;55.416;37.840;2023-05-16T12:36:13;1.30;;;0.60;;
45909;SDS011;31622;55.416;37.840;2023-05-16T12:38:40;1.33;;;0.70;;
45909;SDS011;31622;55.416;37.840;2023-05-16T12:41:06;3.25;;;0.52;;
45909;SDS011;31622;55.416;37.840;2023-05-16T12:43:32;1.30;;;0.60;;
45909;SDS011;31622;55.416;37.840;2023-05-16T12:45:58;3.15;;;0.77;;
45909;SDS011;31622;55.416;37.840;2023-05-16T12:48:30;8.80;;;1.05;;
45909;SDS011;31622;55.416;37.840;2023-05-16T12:51:07;5.65;;;1.25;;
45909;SDS011;31622;55.416;37.840;2023-05-16T12:56:09;2.58;;;0.60;;
45909;SDS011;31622;55.416;37.840;2023-05-16T12:58:36;6.32;;;0.68;;
45909;SDS011;31622;55.416;37.840;2023-05-16T13:01:03;2.25;;;0.70;;
45909;SDS011;31622;55.416;37.840;2023-05-16T13:03:30;3.20;;;0.80;;
45909;SDS011;31622;55.416;37.840;2023-05-16T13:05:57;3.45;;;0.80;;
45909;SDS011;31622;55.416;37.840;2023-05-16T13:08:23;2.38;;;0.82;;
45909;SDS011;31622;55.416;37.840;2023-05-16T13:10:49;3.50;;;0.90;;
45909;SDS011;31622;55.416;37.840;2023-05-16T13:13:16;4.82;;;0.70;;
45909;SDS011;31622;55.416;37.840;2023-05-16T13:15:46;6.50;;;0.85;;
45909;SDS011;31622;55.416;37.840;2023-05-16T13:18:12;2.08;;;0.65;;
45909;SDS011;31622;55.416;37.840;2023-05-16T13:20:38;1.98;;;0.70;;
45909;SDS011;31622;55.416;37.840;2023-05-16T13:23:04;1.38;;;0.63;;
45909;SDS011;31622;55.416;37.840;2023-05-16T13:25:33;3.03;;;0.90;;
45909;SDS011;31622;55.416;37.840;2023-05-16T13:27:59;2.60;;;0.85;;
45909;SDS011;31622;55.416;37.840;2023-05-16T13:30:24;3.67;;;0.88;;
45909;SDS011;31622;55.416;37.840;2023-05-16T13:32:50;1.65;;;0.73;;
45909;SDS011;31622;55.416;37.840;2023-05-16T13:35:16;3.28;;;0.95;;
45909;SDS011;31622;55.416;37.840;2023-05-16T13:37:43;2.80;;;0.80;;
45909;SDS011;31622;55.416;37.840;2023-05-16T13:40:08;5.75;;;0.82;;
45909;SDS011;31622;55.416;37.840;2023-05-16T13:42:35;3.50;;;0.95;;
45909;SDS011;31622;55.416;37.840;2023-05-16T13:45:04;5.28;;;1.10;;
45909;SDS011;31622;55.416;37.840;2023-05-16T13:47:31;6.75;;;0.80;;
45909;SDS011;31622;55.416;37.840;2023-05-16T13:49:57;3.78;;;0.73;;
45909;SDS011;31622;55.416;37.840;2023-05-16T13:52:27;4.57;;;0.85;;
45909;SDS011;31622;55.416;37.840;2023-05-16T13:54:53;4.07;;;0.90;;
45909;SDS011;31622;55.416;37.840;2023-05-16T13:57:18;3.28;;;0.93;;
45909;SDS011;31622;55.416;37.840;2023-05-16T13:59:47;3.92;;;0.90;;
45909;SDS011;31622;55.416;37.840;2023-05-16T14:02:13;1.15;;;0.50;;
45909;SDS011;31622;55.416;37.840;2023-05-16T14:04:39;2.85;;;0.77;;
45909;SDS011;31622;55.416;37.840;2023-05-16T14:07:05;2.65;;;0.80;;
45909;SDS011;31622;55.416;37.840;2023-05-16T14:09:31;4.25;;;0.98;;
45909;SDS011;31622;55.416;37.840;2023-05-16T14:11:59;2.00;;;1.00;;
45909;SDS011;31622;55.416;37.840;2023-05-16T14:14:27;3.95;;;1.00;;
45909;SDS011;31622;55.416;37.840;2023-05-16T14:16:52;2.22;;;0.95;;
45909;SDS011;31622;55.416;37.840;2023-05-16T14:19:18;2.75;;;1.20;;
45909;SDS011;31622;55.416;37.840;2023-05-16T14:21:44;3.38;;;1.42;;
45909;SDS011;31622;55.416;37.840;2023-05-16T14:24:10;4.63;;;1.35;;
45909;SDS011;31622;55.416;37.840;2023-05-16T14:26:36;2.33;;;1.10;;
45909;SDS011;31622;55.416;37.840;2023-05-16T14:29:02;6.07;;;1.80;;
45909;SDS011;31622;55.416;37.840;2023-05-16T14:31:28;4.78;;;1.90;;
45909;SDS011;31622;55.416;37.840;2023-05-16T14:33:54;4.80;;;1.70;;
45909;SDS011;31622;55.416;37.840;2023-05-16T14:36:20;4.97;;;1.70;;
45909;SDS011;31622;55.416;37.840;2023-05-16T14:38:46;2.85;;;1.30;;
45909;SDS011;31622;55.416;37.840;2023-05-16T14:41:13;5.13;;;1.33;;
45909;SDS011;31622;55.416;37.840;2023-05-16T14:43:39;4.25;;;1.58;;
45909;SDS011;31622;55.416;37.840;2023-05-16T14:46:04;5.28;;;1.73;;
45909;SDS011;31622;55.416;37.840;2023-05-16T14:48:30;3.75;;;1.80;;
45909;SDS011;31622;55.416;37.840;2023-05-16T14:50:57;5.15;;;1.60;;
45909;SDS011;31622;55.416;37.840;2023-05-16T14:53:23;3.47;;;1.60;;
45909;SDS011;31622;55.416;37.840;2023-05-16T14:55:49;4.20;;;1.55;;
45909;SDS011;31622;55.416;37.840;2023-05-16T14:58:15;4.72;;;1.30;;
45909;SDS011;31622;55.416;37.840;2023-05-16T15:00:40;4.30;;;1.38;;
45909;SDS011;31622;55.416;37.840;2023-05-16T15:03:06;3.95;;;1.20;;